sensor_id;sensor_type;location;lat;lon;timestamp;P1;durP1;ratioP1;P2;durP2;ratioP2
27543;SDS011;17996;51.056;3.656;2023-04-25T00:00:45;28.90;;;7.60;;
27543;SDS011;17996;51.056;3.656;2023-04-25T00:03:11;39.72;;;8.18;;
27543;SDS011;17996;51.056;3.656;2023-04-25T00:05:36;39.25;;;7.55;;
27543;SDS011;17996;51.056;3.656;2023-04-25T00:08:04;28.77;;;7.15;;
27543;SDS011;17996;51.056;3.656;2023-04-25T00:10:30;34.15;;;9.05;;
27543;SDS011;17996;51.056;3.656;2023-04-25T00:12:56;28.05;;;7.50;;
27543;SDS011;17996;51.056;3.656;2023-04-25T00:15:22;32.15;;;7.43;;
27543;SDS011;17996;51.056;3.656;2023-04-25T00:17:49;34.65;;;6.70;;
27543;SDS011;17996;51.056;3.656;2023-04-25T00:20:18;29.27;;;7.43;;
27543;SDS011;17996;51.056;3.656;2023-04-25T00:22:44;29.75;;;7.03;;
27543;SDS011;17996;51.056;3.656;2023-04-25T00:25:10;44.00;;;7.47;;
27543;SDS011;17996;51.056;3.656;2023-04-25T00:27:36;39.80;;;8.82;;
27543;SDS011;17996;51.056;3.656;2023-04-25T00:30:01;31.80;;;6.93;;
27543;SDS011;17996;51.056;3.656;2023-04-25T00:32:28;35.70;;;7.68;;
27543;SDS011;17996;51.056;3.656;2023-04-25T00:34:54;34.35;;;7.18;;
27543;SDS011;17996;51.056;3.656;2023-04-25T00:37:20;29.67;;;7.30;;
27543;SDS011;17996;51.056;3.656;2023-04-25T00:39:47;31.95;;;7.38;;
27543;SDS011;17996;51.056;3.656;2023-04-25T00:42:12;38.80;;;7.35;;
27543;SDS011;17996;51.056;3.656;2023-04-25T00:44:39;40.65;;;6.65;;
27543;SDS011;17996;51.056;3.656;2023-04-25T00:47:04;21.92;;;5.50;;
27543;SDS011;17996;51.056;3.656;2023-04-25T00:49:31;22.45;;;6.22;;
27543;SDS011;17996;51.056;3.656;2023-04-25T00:51:57;30.63;;;7.15;;
27543;SDS011;17996;51.056;3.656;2023-04-25T00:54:22;23.35;;;6.05;;
27543;SDS011;17996;51.056;3.656;2023-04-25T00:56:48;29.80;;;6.95;;
27543;SDS011;17996;51.056;3.656;2023-04-25T00:59:14;33.05;;;6.85;;
27543;SDS011;17996;51.056;3.656;2023-04-25T01:01:40;21.05;;;5.68;;
27543;SDS011;17996;51.056;3.656;2023-04-25T01:04:07;31.60;;;6.07;;
27543;SDS011;17996;51.056;3.656;2023-04-25T01:06:32;31.02;;;7.53;;
27543;SDS011;17996;51.056;3.656;2023-04-25T01:08:58;25.42;;;7.28;;
27543;SDS011;17996;51.056;3.656;2023-04-25T01:11:24;31.45;;;8.25;;
27543;SDS011;17996;51.056;3.656;2023-04-25T01:13:50;26.17;;;6.50;;
27543;SDS011;17996;51.056;3.656;2023-04-25T01:16:16;27.38;;;6.80;;
27543;SDS011;17996;51.056;3.656;2023-04-25T01:18:41;31.08;;;7.10;;
27543;SDS011;17996;51.056;3.656;2023-04-25T01:21:09;24.13;;;5.95;;
27543;SDS011;17996;51.056;3.656;2023-04-25T01:23:36;38.95;;;6.72;;
27543;SDS011;17996;51.056;3.656;2023-04-25T01:26:03;34.03;;;8.02;;
27543;SDS011;17996;51.056;3.656;2023-04-25T01:28:30;31.98;;;7.75;;
27543;SDS011;17996;51.056;3.656;2023-04-25T01:30:56;32.63;;;7.70;;
27543;SDS011;17996;51.056;3.656;2023-04-25T01:33:22;27.02;;;6.90;;
27543;SDS011;17996;51.056;3.656;2023-04-25T01:35:48;26.42;;;5.88;;
27543;SDS011;17996;51.056;3.656;2023-04-25T01:38:14;33.35;;;7.93;;
27543;SDS011;17996;51.056;3.656;2023-04-25T01:40:40;25.20;;;7.13;;
27543;SDS011;17996;51.056;3.656;2023-04-25T01:43:09;29.10;;;6.68;;
27543;SDS011;17996;51.056;3.656;2023-04-25T01:45:37;36.90;;;7.13;;
27543;SDS011;17996;51.056;3.656;2023-04-25T01:48:07;30.10;;;7.32;;
27543;SDS011;17996;51.056;3.656;2023-04-25T01:50:37;35.10;;;8.00;;
27543;SDS011;17996;51.056;3.656;2023-04-25T01:53:03;34.75;;;6.97;;
27543;SDS011;17996;51.056;3.656;2023-04-25T01:55:30;34.92;;;7.45;;
27543;SDS011;17996;51.056;3.656;2023-04-25T01:57:56;30.73;;;7.50;;
27543;SDS011;17996;51.056;3.656;2023-04-25T02:00:22;26.77;;;6.55;;
27543;SDS011;17996;51.056;3.656;2023-04-25T02:02:48;36.72;;;7.63;;
27543;SDS011;17996;51.056;3.656;2023-04-25T02:05:16;35.90;;;7.00;;
27543;SDS011;17996;51.056;3.656;2023-04-25T02:07:42;32.42;;;7.85;;
27543;SDS011;17996;51.056;3.656;2023-04-25T02:10:07;45.03;;;7.22;;
27543;SDS011;17996;51.056;3.656;2023-04-25T02:12:34;35.72;;;7.72;;
27543;SDS011;17996;51.056;3.656;2023-04-25T02:15:00;31.10;;;6.28;;
27543;SDS011;17996;51.056;3.656;2023-04-25T02:17:26;31.25;;;6.25;;
27543;SDS011;17996;51.056;3.656;2023-04-25T02:19:52;39.80;;;7.43;;
27543;SDS011;17996;51.056;3.656;2023-04-25T02:22:18;31.73;;;6.82;;
27543;SDS011;17996;51.056;3.656;2023-04-25T02:24:44;34.63;;;6.85;;
27543;SDS011;17996;51.056;3.656;2023-04-25T02:27:10;24.15;;;6.20;;
27543;SDS011;17996;51.056;3.656;2023-04-25T02:29:36;31.70;;;6.80;;
27543;SDS011;17996;51.056;3.656;2023-04-25T02:32:01;22.98;;;6.32;;
27543;SDS011;17996;51.056;3.656;2023-04-25T02:34:27;27.20;;;6.55;;
27543;SDS011;17996;51.056;3.656;2023-04-25T02:36:54;24.33;;;6.78;;
27543;SDS011;17996;51.056;3.656;2023-04-25T02:39:20;28.02;;;7.10;;
27543;SDS011;17996;51.056;3.656;2023-04-25T02:41:47;29.05;;;5.97;;
27543;SDS011;17996;51.056;3.656;2023-04-25T02:44:12;32.97;;;6.95;;
27543;SDS011;17996;51.056;3.656;2023-04-25T02:46:38;33.47;;;7.20;;
27543;SDS011;17996;51.056;3.656;2023-04-25T02:49:04;32.33;;;6.28;;
27543;SDS011;17996;51.056;3.656;2023-04-25T02:51:30;32.13;;;6.75;;
27543;SDS011;17996;51.056;3.656;2023-04-25T02:53:56;36.45;;;7.68;;
27543;SDS011;17996;51.056;3.656;2023-04-25T02:56:21;33.33;;;6.80;;
27543;SDS011;17996;51.056;3.656;2023-04-25T02:58:47;25.42;;;6.72;;
27543;SDS011;17996;51.056;3.656;2023-04-25T03:01:13;31.40;;;7.15;;
27543;SDS011;17996;51.056;3.656;2023-04-25T03:03:39;27.92;;;5.78;;
27543;SDS011;17996;51.056;3.656;2023-04-25T03:06:05;37.60;;;8.00;;
27543;SDS011;17996;51.056;3.656;2023-04-25T03:08:30;31.00;;;7.85;;
27543;SDS011;17996;51.056;3.656;2023-04-25T03:10:57;29.92;;;6.95;;
27543;SDS011;17996;51.056;3.656;2023-04-25T03:13:24;40.53;;;7.10;;
27543;SDS011;17996;51.056;3.656;2023-04-25T03:15:49;39.85;;;6.38;;
27543;SDS011;17996;51.056;3.656;2023-04-25T03:18:15;31.67;;;6.10;;
27543;SDS011;17996;51.056;3.656;2023-04-25T03:20:41;22.60;;;6.43;;
27543;SDS011;17996;51.056;3.656;2023-04-25T03:23:07;21.13;;;5.57;;
27543;SDS011;17996;51.056;3.656;2023-04-25T03:25:32;24.63;;;5.32;;
27543;SDS011;17996;51.056;3.656;2023-04-25T03:27:58;33.95;;;5.65;;
27543;SDS011;17996;51.056;3.656;2023-04-25T03:30:24;25.27;;;5.63;;
27543;SDS011;17996;51.056;3.656;2023-04-25T03:32:49;22.98;;;5.30;;
27543;SDS011;17996;51.056;3.656;2023-04-25T03:35:15;31.73;;;4.90;;
27543;SDS011;17996;51.056;3.656;2023-04-25T03:37:41;24.23;;;5.72;;
27543;SDS011;17996;51.056;3.656;2023-04-25T03:40:10;36.28;;;5.80;;
27543;SDS011;17996;51.056;3.656;2023-04-25T03:42:36;16.63;;;4.30;;
27543;SDS011;17996;51.056;3.656;2023-04-25T03:45:02;28.52;;;6.18;;
27543;SDS011;17996;51.056;3.656;2023-04-25T03:47:28;22.23;;;5.03;;
27543;SDS011;17996;51.056;3.656;2023-04-25T03:49:54;23.83;;;5.30;;
27543;SDS011;17996;51.056;3.656;2023-04-25T03:52:20;21.48;;;4.85;;
27543;SDS011;17996;51.056;3.656;2023-04-25T03:54:45;26.48;;;5.70;;
27543;SDS011;17996;51.056;3.656;2023-04-25T03:57:11;24.42;;;5.50;;
27543;SDS011;17996;51.056;3.656;2023-04-25T03:59:37;36.38;;;5.65;;
27543;SDS011;17996;51.056;3.656;2023-04-25T04:02:02;23.95;;;5.13;;
27543;SDS011;17996;51.056;3.656;2023-04-25T04:04:28;16.27;;;5.03;;
27543;SDS011;17996;51.056;3.656;2023-04-25T04:06:55;32.80;;;7.25;;
27543;SDS011;17996;51.056;3.656;2023-04-25T04:09:20;28.67;;;6.18;;
27543;SDS011;17996;51.056;3.656;2023-04-25T04:11:46;22.33;;;5.40;;
27543;SDS011;17996;51.056;3.656;2023-04-25T04:14:12;17.05;;;4.55;;
27543;SDS011;17996;51.056;3.656;2023-04-25T04:16:38;17.00;;;4.90;;
27543;SDS011;17996;51.056;3.656;2023-04-25T04:19:03;29.15;;;5.57;;
27543;SDS011;17996;51.056;3.656;2023-04-25T04:21:29;26.92;;;5.22;;
27543;SDS011;17996;51.056;3.656;2023-04-25T04:23:55;22.70;;;5.80;;
27543;SDS011;17996;51.056;3.656;2023-04-25T04:26:22;24.00;;;6.18;;
27543;SDS011;17996;51.056;3.656;2023-04-25T04:28:51;24.17;;;5.25;;
27543;SDS011;17996;51.056;3.656;2023-04-25T04:31:19;25.92;;;5.55;;
27543;SDS011;17996;51.056;3.656;2023-04-25T04:33:46;19.58;;;5.72;;
27543;SDS011;17996;51.056;3.656;2023-04-25T04:36:12;23.15;;;5.80;;
27543;SDS011;17996;51.056;3.656;2023-04-25T04:38:38;23.77;;;6.13;;
27543;SDS011;17996;51.056;3.656;2023-04-25T04:41:05;23.00;;;6.20;;
27543;SDS011;17996;51.056;3.656;2023-04-25T04:43:31;21.27;;;5.32;;
27543;SDS011;17996;51.056;3.656;2023-04-25T04:45:58;18.35;;;5.03;;
27543;SDS011;17996;51.056;3.656;2023-04-25T04:48:28;21.85;;;5.57;;
27543;SDS011;17996;51.056;3.656;2023-04-25T04:50:57;17.75;;;4.90;;
27543;SDS011;17996;51.056;3.656;2023-04-25T04:53:23;12.55;;;4.90;;
27543;SDS011;17996;51.056;3.656;2023-04-25T04:55:49;22.05;;;5.57;;
27543;SDS011;17996;51.056;3.656;2023-04-25T04:58:15;21.70;;;5.10;;
27543;SDS011;17996;51.056;3.656;2023-04-25T05:00:41;21.17;;;4.57;;
27543;SDS011;17996;51.056;3.656;2023-04-25T05:03:06;16.65;;;4.95;;
27543;SDS011;17996;51.056;3.656;2023-04-25T05:05:32;23.83;;;5.90;;
27543;SDS011;17996;51.056;3.656;2023-04-25T05:07:58;14.55;;;5.18;;
27543;SDS011;17996;51.056;3.656;2023-04-25T05:10:24;28.48;;;5.75;;
27543;SDS011;17996;51.056;3.656;2023-04-25T05:12:50;24.48;;;6.43;;
27543;SDS011;17996;51.056;3.656;2023-04-25T05:15:16;17.90;;;5.05;;
27543;SDS011;17996;51.056;3.656;2023-04-25T05:17:42;18.15;;;5.63;;
27543;SDS011;17996;51.056;3.656;2023-04-25T05:20:08;24.17;;;6.80;;
27543;SDS011;17996;51.056;3.656;2023-04-25T05:22:34;18.65;;;5.28;;
27543;SDS011;17996;51.056;3.656;2023-04-25T05:25:01;21.20;;;5.22;;
27543;SDS011;17996;51.056;3.656;2023-04-25T05:27:27;24.00;;;4.85;;
27543;SDS011;17996;51.056;3.656;2023-04-25T05:29:52;24.67;;;6.75;;
27543;SDS011;17996;51.056;3.656;2023-04-25T05:32:18;17.30;;;5.43;;
27543;SDS011;17996;51.056;3.656;2023-04-25T05:34:43;17.05;;;4.38;;
27543;SDS011;17996;51.056;3.656;2023-04-25T05:37:09;18.67;;;4.93;;
27543;SDS011;17996;51.056;3.656;2023-04-25T05:39:35;25.70;;;5.43;;
27543;SDS011;17996;51.056;3.656;2023-04-25T05:42:01;20.10;;;4.75;;
27543;SDS011;17996;51.056;3.656;2023-04-25T05:44:27;20.83;;;5.47;;
27543;SDS011;17996;51.056;3.656;2023-04-25T05:46:53;20.70;;;4.50;;
27543;SDS011;17996;51.056;3.656;2023-04-25T05:49:19;29.15;;;5.22;;
27543;SDS011;17996;51.056;3.656;2023-04-25T05:51:45;18.60;;;4.47;;
27543;SDS011;17996;51.056;3.656;2023-04-25T05:54:11;29.73;;;4.60;;
27543;SDS011;17996;51.056;3.656;2023-04-25T05:56:36;17.55;;;4.30;;
27543;SDS011;17996;51.056;3.656;2023-04-25T05:59:02;24.00;;;4.05;;
27543;SDS011;17996;51.056;3.656;2023-04-25T06:01:30;27.20;;;4.55;;
27543;SDS011;17996;51.056;3.656;2023-04-25T06:03:56;17.65;;;4.25;;
27543;SDS011;17996;51.056;3.656;2023-04-25T06:06:21;25.45;;;4.82;;
27543;SDS011;17996;51.056;3.656;2023-04-25T06:08:47;21.23;;;4.13;;
27543;SDS011;17996;51.056;3.656;2023-04-25T06:11:13;14.80;;;4.38;;
27543;SDS011;17996;51.056;3.656;2023-04-25T06:13:39;14.70;;;3.67;;
27543;SDS011;17996;51.056;3.656;2023-04-25T06:16:05;15.55;;;4.00;;
27543;SDS011;17996;51.056;3.656;2023-04-25T06:18:31;21.70;;;4.35;;
27543;SDS011;17996;51.056;3.656;2023-04-25T06:20:56;15.05;;;3.85;;
27543;SDS011;17996;51.056;3.656;2023-04-25T06:23:22;16.10;;;3.60;;
27543;SDS011;17996;51.056;3.656;2023-04-25T06:25:48;13.98;;;3.28;;
27543;SDS011;17996;51.056;3.656;2023-04-25T06:28:13;19.60;;;4.07;;
27543;SDS011;17996;51.056;3.656;2023-04-25T06:30:39;17.05;;;3.88;;
27543;SDS011;17996;51.056;3.656;2023-04-25T06:33:05;15.50;;;3.33;;
27543;SDS011;17996;51.056;3.656;2023-04-25T06:35:31;17.20;;;4.43;;
27543;SDS011;17996;51.056;3.656;2023-04-25T06:37:56;21.10;;;5.07;;
27543;SDS011;17996;51.056;3.656;2023-04-25T06:40:22;21.73;;;3.95;;
27543;SDS011;17996;51.056;3.656;2023-04-25T06:42:48;20.10;;;3.65;;
27543;SDS011;17996;51.056;3.656;2023-04-25T06:45:14;20.33;;;3.65;;
27543;SDS011;17996;51.056;3.656;2023-04-25T06:47:39;11.82;;;2.78;;
27543;SDS011;17996;51.056;3.656;2023-04-25T06:50:05;19.08;;;3.22;;
27543;SDS011;17996;51.056;3.656;2023-04-25T06:52:31;16.23;;;3.25;;
27543;SDS011;17996;51.056;3.656;2023-04-25T06:54:57;15.90;;;3.53;;
27543;SDS011;17996;51.056;3.656;2023-04-25T06:57:23;16.15;;;2.90;;
27543;SDS011;17996;51.056;3.656;2023-04-25T06:59:50;13.50;;;3.03;;
27543;SDS011;17996;51.056;3.656;2023-04-25T07:02:17;17.80;;;3.75;;
27543;SDS011;17996;51.056;3.656;2023-04-25T07:04:44;14.10;;;3.35;;
27543;SDS011;17996;51.056;3.656;2023-04-25T07:07:11;15.27;;;3.90;;
27543;SDS011;17996;51.056;3.656;2023-04-25T07:09:37;11.45;;;2.92;;
27543;SDS011;17996;51.056;3.656;2023-04-25T07:12:02;20.27;;;3.03;;
27543;SDS011;17996;51.056;3.656;2023-04-25T07:14:28;24.25;;;3.33;;
27543;SDS011;17996;51.056;3.656;2023-04-25T07:16:54;24.40;;;3.35;;
27543;SDS011;17996;51.056;3.656;2023-04-25T07:19:21;18.45;;;3.47;;
27543;SDS011;17996;51.056;3.656;2023-04-25T07:21:49;15.88;;;3.88;;
27543;SDS011;17996;51.056;3.656;2023-04-25T07:24:15;17.00;;;3.28;;
27543;SDS011;17996;51.056;3.656;2023-04-25T07:26:40;10.63;;;2.78;;
27543;SDS011;17996;51.056;3.656;2023-04-25T07:29:06;11.50;;;2.50;;
27543;SDS011;17996;51.056;3.656;2023-04-25T07:31:32;10.73;;;3.00;;
27543;SDS011;17996;51.056;3.656;2023-04-25T07:33:58;12.27;;;2.35;;
27543;SDS011;17996;51.056;3.656;2023-04-25T07:36:23;21.95;;;3.90;;
27543;SDS011;17996;51.056;3.656;2023-04-25T07:38:51;11.18;;;2.38;;
27543;SDS011;17996;51.056;3.656;2023-04-25T07:41:17;19.63;;;3.30;;
27543;SDS011;17996;51.056;3.656;2023-04-25T07:43:42;16.27;;;2.70;;
27543;SDS011;17996;51.056;3.656;2023-04-25T07:46:08;12.18;;;2.30;;
27543;SDS011;17996;51.056;3.656;2023-04-25T07:48:34;10.18;;;2.17;;
27543;SDS011;17996;51.056;3.656;2023-04-25T07:50:59;11.05;;;2.50;;
27543;SDS011;17996;51.056;3.656;2023-04-25T07:53:25;16.10;;;2.65;;
27543;SDS011;17996;51.056;3.656;2023-04-25T07:55:51;10.48;;;2.58;;
27543;SDS011;17996;51.056;3.656;2023-04-25T07:58:16;10.05;;;2.15;;
27543;SDS011;17996;51.056;3.656;2023-04-25T08:00:46;15.63;;;3.13;;
27543;SDS011;17996;51.056;3.656;2023-04-25T08:03:12;20.02;;;2.00;;
27543;SDS011;17996;51.056;3.656;2023-04-25T08:05:38;14.75;;;2.85;;
27543;SDS011;17996;51.056;3.656;2023-04-25T08:08:03;11.88;;;2.92;;
27543;SDS011;17996;51.056;3.656;2023-04-25T08:10:31;14.43;;;2.67;;
27543;SDS011;17996;51.056;3.656;2023-04-25T08:12:57;10.25;;;2.20;;
27543;SDS011;17996;51.056;3.656;2023-04-25T08:15:23;11.23;;;2.25;;
27543;SDS011;17996;51.056;3.656;2023-04-25T08:17:50;12.70;;;2.83;;
27543;SDS011;17996;51.056;3.656;2023-04-25T08:20:16;10.10;;;2.53;;
27543;SDS011;17996;51.056;3.656;2023-04-25T08:22:42;11.85;;;2.40;;
27543;SDS011;17996;51.056;3.656;2023-04-25T08:25:08;10.25;;;2.45;;
27543;SDS011;17996;51.056;3.656;2023-04-25T08:27:33;16.33;;;2.90;;
27543;SDS011;17996;51.056;3.656;2023-04-25T08:30:01;15.48;;;2.38;;
27543;SDS011;17996;51.056;3.656;2023-04-25T08:32:28;9.20;;;2.17;;
27543;SDS011;17996;51.056;3.656;2023-04-25T08:34:54;14.27;;;2.67;;
27543;SDS011;17996;51.056;3.656;2023-04-25T08:37:20;8.15;;;1.92;;
27543;SDS011;17996;51.056;3.656;2023-04-25T08:39:46;10.82;;;1.83;;
27543;SDS011;17996;51.056;3.656;2023-04-25T08:42:17;6.38;;;2.05;;
27543;SDS011;17996;51.056;3.656;2023-04-25T08:44:44;10.07;;;2.40;;
27543;SDS011;17996;51.056;3.656;2023-04-25T08:47:11;11.73;;;1.83;;
27543;SDS011;17996;51.056;3.656;2023-04-25T08:49:37;8.55;;;2.40;;
27543;SDS011;17996;51.056;3.656;2023-04-25T08:52:04;9.95;;;1.95;;
27543;SDS011;17996;51.056;3.656;2023-04-25T08:54:31;9.52;;;1.92;;
27543;SDS011;17996;51.056;3.656;2023-04-25T08:57:00;10.63;;;2.33;;
27543;SDS011;17996;51.056;3.656;2023-04-25T08:59:27;14.32;;;2.47;;
27543;SDS011;17996;51.056;3.656;2023-04-25T09:01:53;15.60;;;2.80;;
27543;SDS011;17996;51.056;3.656;2023-04-25T09:04:20;9.77;;;2.33;;
27543;SDS011;17996;51.056;3.656;2023-04-25T09:06:46;11.95;;;2.35;;
27543;SDS011;17996;51.056;3.656;2023-04-25T09:09:12;9.40;;;2.00;;
27543;SDS011;17996;51.056;3.656;2023-04-25T09:11:38;20.95;;;2.35;;
27543;SDS011;17996;51.056;3.656;2023-04-25T09:14:15;10.80;;;2.42;;
27543;SDS011;17996;51.056;3.656;2023-04-25T09:19:28;7.25;;;1.90;;
27543;SDS011;17996;51.056;3.656;2023-04-25T09:21:56;9.60;;;2.10;;
27543;SDS011;17996;51.056;3.656;2023-04-25T09:24:35;18.45;;;3.70;;
27543;SDS011;17996;51.056;3.656;2023-04-25T09:27:07;9.80;;;2.30;;
27543;SDS011;17996;51.056;3.656;2023-04-25T09:29:35;11.23;;;2.22;;
27543;SDS011;17996;51.056;3.656;2023-04-25T09:32:21;10.38;;;2.22;;
27543;SDS011;17996;51.056;3.656;2023-04-25T09:34:52;10.93;;;2.20;;
27543;SDS011;17996;51.056;3.656;2023-04-25T09:37:23;10.32;;;2.35;;
27543;SDS011;17996;51.056;3.656;2023-04-25T09:39:52;10.85;;;2.67;;
27543;SDS011;17996;51.056;3.656;2023-04-25T09:42:21;12.50;;;3.25;;
27543;SDS011;17996;51.056;3.656;2023-04-25T09:44:49;12.82;;;2.42;;
27543;SDS011;17996;51.056;3.656;2023-04-25T09:47:17;10.48;;;2.47;;
27543;SDS011;17996;51.056;3.656;2023-04-25T09:49:46;10.40;;;2.55;;
27543;SDS011;17996;51.056;3.656;2023-04-25T09:55:04;10.63;;;2.67;;
27543;SDS011;17996;51.056;3.656;2023-04-25T09:57:31;12.93;;;2.17;;
27543;SDS011;17996;51.056;3.656;2023-04-25T09:59:57;9.00;;;2.83;;
27543;SDS011;17996;51.056;3.656;2023-04-25T10:02:26;11.75;;;2.10;;
27543;SDS011;17996;51.056;3.656;2023-04-25T10:04:53;10.43;;;2.28;;
27543;SDS011;17996;51.056;3.656;2023-04-25T10:07:22;8.30;;;1.67;;
27543;SDS011;17996;51.056;3.656;2023-04-25T10:09:54;9.65;;;1.67;;
27543;SDS011;17996;51.056;3.656;2023-04-25T10:12:26;11.25;;;2.20;;
27543;SDS011;17996;51.056;3.656;2023-04-25T10:14:52;11.68;;;1.95;;
27543;SDS011;17996;51.056;3.656;2023-04-25T10:17:20;6.68;;;1.77;;
27543;SDS011;17996;51.056;3.656;2023-04-25T10:19:47;9.23;;;1.33;;
27543;SDS011;17996;51.056;3.656;2023-04-25T10:22:14;8.85;;;1.80;;
27543;SDS011;17996;51.056;3.656;2023-04-25T10:24:46;7.80;;;1.55;;
27543;SDS011;17996;51.056;3.656;2023-04-25T10:27:12;9.38;;;1.70;;
27543;SDS011;17996;51.056;3.656;2023-04-25T10:29:38;9.75;;;2.85;;
27543;SDS011;17996;51.056;3.656;2023-04-25T10:32:07;10.30;;;2.17;;
27543;SDS011;17996;51.056;3.656;2023-04-25T10:34:42;8.90;;;1.98;;
27543;SDS011;17996;51.056;3.656;2023-04-25T10:37:12;9.27;;;2.05;;
27543;SDS011;17996;51.056;3.656;2023-04-25T10:39:39;10.80;;;2.20;;
27543;SDS011;17996;51.056;3.656;2023-04-25T10:42:06;9.15;;;1.83;;
27543;SDS011;17996;51.056;3.656;2023-04-25T10:44:36;8.50;;;2.10;;
27543;SDS011;17996;51.056;3.656;2023-04-25T10:47:05;11.00;;;2.17;;
27543;SDS011;17996;51.056;3.656;2023-04-25T10:49:42;4.85;;;1.83;;
27543;SDS011;17996;51.056;3.656;2023-04-25T10:52:11;10.43;;;2.13;;
27543;SDS011;17996;51.056;3.656;2023-04-25T10:54:46;12.70;;;2.00;;
27543;SDS011;17996;51.056;3.656;2023-04-25T11:00:17;9.43;;;1.77;;
27543;SDS011;17996;51.056;3.656;2023-04-25T11:02:46;10.20;;;2.25;;
27543;SDS011;17996;51.056;3.656;2023-04-25T11:05:33;5.47;;;1.73;;
27543;SDS011;17996;51.056;3.656;2023-04-25T11:08:00;11.23;;;2.10;;
27543;SDS011;17996;51.056;3.656;2023-04-25T11:10:29;7.68;;;2.17;;
27543;SDS011;17996;51.056;3.656;2023-04-25T11:12:56;7.85;;;2.38;;
27543;SDS011;17996;51.056;3.656;2023-04-25T11:15:23;10.60;;;2.40;;
27543;SDS011;17996;51.056;3.656;2023-04-25T11:17:50;14.85;;;2.95;;
27543;SDS011;17996;51.056;3.656;2023-04-25T11:20:17;7.63;;;2.55;;
27543;SDS011;17996;51.056;3.656;2023-04-25T11:22:44;14.88;;;1.95;;
27543;SDS011;17996;51.056;3.656;2023-04-25T11:25:11;12.13;;;2.13;;
27543;SDS011;17996;51.056;3.656;2023-04-25T11:27:58;6.13;;;1.88;;
27543;SDS011;17996;51.056;3.656;2023-04-25T11:30:25;9.85;;;1.88;;
27543;SDS011;17996;51.056;3.656;2023-04-25T11:32:52;8.15;;;1.85;;
27543;SDS011;17996;51.056;3.656;2023-04-25T11:35:21;11.57;;;1.60;;
27543;SDS011;17996;51.056;3.656;2023-04-25T11:37:48;9.77;;;2.17;;
27543;SDS011;17996;51.056;3.656;2023-04-25T11:40:14;13.07;;;2.15;;
27543;SDS011;17996;51.056;3.656;2023-04-25T11:42:44;6.88;;;1.83;;
27543;SDS011;17996;51.056;3.656;2023-04-25T11:45:11;11.07;;;1.95;;
27543;SDS011;17996;51.056;3.656;2023-04-25T11:47:37;11.85;;;2.15;;
27543;SDS011;17996;51.056;3.656;2023-04-25T11:50:04;10.43;;;2.67;;
27543;SDS011;17996;51.056;3.656;2023-04-25T11:52:39;12.07;;;2.22;;
27543;SDS011;17996;51.056;3.656;2023-04-25T11:55:10;9.57;;;2.75;;
27543;SDS011;17996;51.056;3.656;2023-04-25T11:57:39;9.23;;;1.98;;
27543;SDS011;17996;51.056;3.656;2023-04-25T12:00:14;13.10;;;2.83;;
27543;SDS011;17996;51.056;3.656;2023-04-25T12:02:44;9.07;;;2.33;;
27543;SDS011;17996;51.056;3.656;2023-04-25T12:05:30;8.95;;;2.03;;
27543;SDS011;17996;51.056;3.656;2023-04-25T12:07:58;10.57;;;1.92;;
27543;SDS011;17996;51.056;3.656;2023-04-25T12:10:36;11.55;;;2.08;;
27543;SDS011;17996;51.056;3.656;2023-04-25T12:13:17;6.38;;;1.85;;
27543;SDS011;17996;51.056;3.656;2023-04-25T12:15:44;7.22;;;1.50;;
27543;SDS011;17996;51.056;3.656;2023-04-25T12:18:10;14.45;;;2.15;;
27543;SDS011;17996;51.056;3.656;2023-04-25T12:20:36;10.15;;;2.15;;
27543;SDS011;17996;51.056;3.656;2023-04-25T12:23:05;11.63;;;2.10;;
27543;SDS011;17996;51.056;3.656;2023-04-25T12:25:42;8.27;;;1.98;;
27543;SDS011;17996;51.056;3.656;2023-04-25T12:30:55;10.52;;;1.80;;
27543;SDS011;17996;51.056;3.656;2023-04-25T12:33:29;6.13;;;1.90;;
27543;SDS011;17996;51.056;3.656;2023-04-25T12:36:00;9.68;;;2.20;;
27543;SDS011;17996;51.056;3.656;2023-04-25T12:38:37;14.30;;;2.53;;
27543;SDS011;17996;51.056;3.656;2023-04-25T12:41:05;10.52;;;1.95;;
27543;SDS011;17996;51.056;3.656;2023-04-25T12:43:31;11.13;;;1.92;;
27543;SDS011;17996;51.056;3.656;2023-04-25T12:45:56;10.65;;;2.72;;
27543;SDS011;17996;51.056;3.656;2023-04-25T12:48:22;13.48;;;2.90;;
27543;SDS011;17996;51.056;3.656;2023-04-25T12:50:49;8.82;;;1.95;;
27543;SDS011;17996;51.056;3.656;2023-04-25T12:53:16;13.52;;;2.35;;
27543;SDS011;17996;51.056;3.656;2023-04-25T12:55:43;10.00;;;2.10;;
27543;SDS011;17996;51.056;3.656;2023-04-25T12:58:11;16.40;;;2.75;;
27543;SDS011;17996;51.056;3.656;2023-04-25T13:00:37;7.40;;;1.88;;
27543;SDS011;17996;51.056;3.656;2023-04-25T13:03:02;10.65;;;2.15;;
27543;SDS011;17996;51.056;3.656;2023-04-25T13:05:29;7.63;;;2.10;;
27543;SDS011;17996;51.056;3.656;2023-04-25T13:07:55;8.95;;;2.10;;
27543;SDS011;17996;51.056;3.656;2023-04-25T13:10:21;8.75;;;2.67;;
27543;SDS011;17996;51.056;3.656;2023-04-25T13:12:47;6.35;;;1.67;;
27543;SDS011;17996;51.056;3.656;2023-04-25T13:15:13;9.15;;;1.83;;
27543;SDS011;17996;51.056;3.656;2023-04-25T13:17:40;4.82;;;1.55;;
27543;SDS011;17996;51.056;3.656;2023-04-25T13:20:07;13.23;;;2.88;;
27543;SDS011;17996;51.056;3.656;2023-04-25T13:22:37;13.82;;;3.75;;
27543;SDS011;17996;51.056;3.656;2023-04-25T13:25:04;12.80;;;2.25;;
27543;SDS011;17996;51.056;3.656;2023-04-25T13:27:31;16.80;;;2.70;;
27543;SDS011;17996;51.056;3.656;2023-04-25T13:29:59;11.60;;;2.42;;
27543;SDS011;17996;51.056;3.656;2023-04-25T13:32:25;7.10;;;2.33;;
27543;SDS011;17996;51.056;3.656;2023-04-25T13:34:51;10.82;;;2.72;;
27543;SDS011;17996;51.056;3.656;2023-04-25T13:37:18;16.70;;;2.83;;
27543;SDS011;17996;51.056;3.656;2023-04-25T13:39:43;9.75;;;1.63;;
27543;SDS011;17996;51.056;3.656;2023-04-25T13:42:09;7.30;;;2.22;;
27543;SDS011;17996;51.056;3.656;2023-04-25T13:44:36;8.77;;;2.05;;
27543;SDS011;17996;51.056;3.656;2023-04-25T13:47:01;11.50;;;2.42;;
27543;SDS011;17996;51.056;3.656;2023-04-25T13:49:27;10.90;;;1.83;;
27543;SDS011;17996;51.056;3.656;2023-04-25T13:51:53;8.82;;;1.77;;
27543;SDS011;17996;51.056;3.656;2023-04-25T13:54:18;8.82;;;2.22;;
27543;SDS011;17996;51.056;3.656;2023-04-25T13:56:44;9.82;;;2.20;;
27543;SDS011;17996;51.056;3.656;2023-04-25T13:59:10;7.65;;;2.10;;
27543;SDS011;17996;51.056;3.656;2023-04-25T14:01:36;9.48;;;2.30;;
27543;SDS011;17996;51.056;3.656;2023-04-25T14:04:04;6.63;;;1.90;;
27543;SDS011;17996;51.056;3.656;2023-04-25T14:06:30;9.98;;;1.90;;
27543;SDS011;17996;51.056;3.656;2023-04-25T14:08:57;10.60;;;2.25;;
27543;SDS011;17996;51.056;3.656;2023-04-25T14:11:22;13.77;;;2.25;;
27543;SDS011;17996;51.056;3.656;2023-04-25T14:13:48;8.85;;;2.25;;
27543;SDS011;17996;51.056;3.656;2023-04-25T14:16:14;11.20;;;2.08;;
27543;SDS011;17996;51.056;3.656;2023-04-25T14:18:41;7.50;;;1.92;;
27543;SDS011;17996;51.056;3.656;2023-04-25T14:21:06;9.57;;;2.40;;
27543;SDS011;17996;51.056;3.656;2023-04-25T14:23:33;12.10;;;2.25;;
27543;SDS011;17996;51.056;3.656;2023-04-25T14:25:58;8.48;;;1.88;;
27543;SDS011;17996;51.056;3.656;2023-04-25T14:28:24;9.15;;;1.98;;
27543;SDS011;17996;51.056;3.656;2023-04-25T14:30:50;7.90;;;1.67;;
27543;SDS011;17996;51.056;3.656;2023-04-25T14:33:15;6.45;;;1.90;;
27543;SDS011;17996;51.056;3.656;2023-04-25T14:35:41;14.57;;;2.50;;
27543;SDS011;17996;51.056;3.656;2023-04-25T14:38:07;10.82;;;2.15;;
27543;SDS011;17996;51.056;3.656;2023-04-25T14:40:33;8.75;;;1.60;;
27543;SDS011;17996;51.056;3.656;2023-04-25T14:42:58;5.18;;;1.50;;
27543;SDS011;17996;51.056;3.656;2023-04-25T14:45:24;7.32;;;2.00;;
27543;SDS011;17996;51.056;3.656;2023-04-25T14:47:50;11.65;;;2.75;;